Terminal Aerodrome Forecast
Issued by NWS

Home | Current Version | Previous Version | Text Only | Print | Product List | Glossary On
Versions: 1 2 3 4 5 6 7 8 9 10 11 12 13 14 15 16 17 18 19
000
FTUS43 KOAX 181100 RRA
TAFBFF
TAF
KBFF 181141Z 1812/1912 10009KT P6SM SCT250
     FM181600 18012KT P6SM SCT250
     FM181800 21015G25KT P6SM FEW100 BKN200
     FM190200 12012KT P6SM BKN100
     FM190500 31007KT P6SM SCT070 OVC100=

USA.gov is the U.S. government's official web portal to all federal, state and local government web resources and services.